Dati Storici

Data ora Umidita' aria (%) Temperatura aria (°C) Rad globale (W/m²) Gonioanemometro (°) Tacoanemometro (m/s) Pioggia (mm)
19-10-2012 04:00 91.1 % 12.067 1.861 324.974 0.348 0
19-10-2012 03:50 90.2 % 12.064 1.412 286.411 -0.009 0
19-10-2012 03:40 90.2 % 12.355 1.745 356.018 0.403 0
19-10-2012 03:30 90 % 12.565 1.63 356.573 0.642 0
19-10-2012 03:20 90 % 12.722 1.553 326.632 0.958 0
19-10-2012 03:10 89.7 % 12.741 1.758 345.464 0.727 0
19-10-2012 03:00 89.3 % 12.794 1.466 331.419 0.848 0
19-10-2012 02:50 88.7 % 12.923 1.478 322.153 0.642 0
19-10-2012 02:40 88 % 13.005 1.402 342.121 0.737 0
19-10-2012 02:30 86.9 % 13.055 0.902 1.148 0.486 0
19-10-2012 02:20 86.2 % 13.388 1.299 306.418 0.177 0
19-10-2012 02:10 85.2 % 13.591 1.453 1.247 1.436 0
19-10-2012 02:00 84.2 % 13.638 1.312 285.22 0.343 0
19-10-2012 01:50 83.9 % 13.904 1.632 339.873 0.821 0
19-10-2012 01:40 83.9 % 14.028 1.722 258.432 1.367 0
19-10-2012 01:30 84.4 % 14.119 2.146 289.013 1.577 0
19-10-2012 01:20 84.9 % 14.144 2.658 269.638 1.574 0
19-10-2012 01:10 85.6 % 14.067 2.462 289.448 1.412 0
19-10-2012 01:00 86.3 % 13.949 1.757 296.651 1.719 0
19-10-2012 00:50 86.5 % 13.755 1.552 255.518 0.789 0

I dati sono presentati in modo automatico a scopo informativo. In seguito a verifica i dati possono subire modifiche o essere invalidati e non riportati negli archivi definitivi.